Demotte, Indiana
Current Conditions -  °F | °C
As of 9:55 AM on Friday 31 Oct 2014 (Local Time) from KRZL Reporting Station
Moderate Rain Moderate Rain  
Wind Chill: 27°   Ceiling: 2400
Heat Index: 37°   Visibility: 10mi
Dew Point: 34°   Wind: 18mph
Humidity: 87%   Direction: 320°NW
Pressure: 30.07"   Gusts: 31mph
Location:  41.2°N, 87.2°W
Report Text: KRZL 311455Z AUTO 32016G27KT 10SM RA SCT012 BKN024 BKN028 03/01 A3007 RMK AO2
Loading
Personal Weather Stations






























Interactive Weather Map
Tropical Storm Tracking
New forecast layout! Learn more

10-Day Weather Forecast

Advertisements
Track Severe Weather on mobile